Terminal Aerodrome Forecast
Issued by NWS Paducah, KY

Home | Current Version | Previous Version | Text Only | Print | Product List | Glossary On
Versions: 1 2 3 4 5 6 7 8 9 10 11 12 13 14 15 16 17 18
306
FTUS43 KPAH 110520
TAFEVV
TAF
KEVV 110520Z 1106/1206 16007KT P6SM OVC050
     FM111800 18012KT P6SM -RA OVC025
     FM120000 20009KT 3SM -RA BR OVC009=

USA.gov is the U.S. government's official web portal to all federal, state and local government web resources and services.